Time;durP1;ratioP1;P1;durP2;ratioP2;P2;SDS_P1;SDS_P2;PMS_P1;PMS_P2;Temp;Humidity;BMP_temperature;BMP_pressure;BME280_temperature;BME280_humidity;BME280_pressure;Samples;Min_cycle;Max_cycle;Signal;HPM_P1;HPM_P2
2023/12/07 00:01:55;;;;;;;18.27;8.55;;;4.00;99.90;;;;;;4978541;28;20045;-68
2023/12/07 00:04:21;;;;;;;18.55;9.38;;;3.90;99.90;;;;;;4988387;28;20414;-69
2023/12/07 00:06:47;;;;;;;17.17;9.10;;;4.00;99.90;;;;;;4978179;28;20035;-68
2023/12/07 00:09:13;;;;;;;17.23;8.00;;;4.00;99.90;;;;;;4980161;28;20035;-68
2023/12/07 00:11:39;;;;;;;18.20;9.25;;;4.00;99.90;;;;;;4979495;28;20102;-69
2023/12/07 00:14:04;;;;;;;14.93;8.23;;;4.00;99.90;;;;;;4984208;28;20039;-69
2023/12/07 00:16:31;;;;;;;13.77;8.82;;;4.00;99.90;;;;;;4978577;28;20042;-68
2023/12/07 00:18:57;;;;;;;13.85;7.07;;;4.00;99.90;;;;;;4977615;28;20128;-68
2023/12/07 00:21:23;;;;;;;17.48;8.50;;;4.00;99.90;;;;;;4979769;28;20038;-68
2023/12/07 00:23:48;;;;;;;14.82;8.38;;;4.10;99.90;;;;;;4983529;28;20399;-68
2023/12/07 00:26:14;;;;;;;20.13;9.50;;;4.00;99.90;;;;;;4979453;28;20034;-68
2023/12/07 00:28:40;;;;;;;18.83;9.18;;;4.10;99.90;;;;;;4981129;28;20045;-68
2023/12/07 00:31:06;;;;;;;15.05;8.00;;;4.10;99.90;;;;;;4977566;28;20035;-69
2023/12/07 00:33:32;;;;;;;14.80;8.75;;;4.10;99.90;;;;;;4977590;28;20034;-69
2023/12/07 00:35:58;;;;;;;15.75;8.05;;;4.00;99.90;;;;;;4976360;28;20042;-69
2023/12/07 00:38:23;;;;;;;14.32;8.38;;;4.00;99.90;;;;;;4979242;28;20080;-69
2023/12/07 00:40:49;;;;;;;13.77;7.35;;;4.00;99.90;;;;;;4975441;28;20828;-69
2023/12/07 00:43:15;;;;;;;14.90;8.43;;;4.00;99.90;;;;;;4978038;28;20038;-69
2023/12/07 00:45:41;;;;;;;12.20;7.40;;;4.00;99.90;;;;;;4976706;28;20022;-69
2023/12/07 00:48:07;;;;;;;14.45;8.68;;;4.00;99.90;;;;;;4976936;28;20038;-69
2023/12/07 00:50:32;;;;;;;13.75;7.82;;;4.00;99.90;;;;;;4976956;28;20065;-69
2023/12/07 00:52:58;;;;;;;15.68;8.48;;;4.00;99.90;;;;;;4975428;28;20044;-69
2023/12/07 00:55:24;;;;;;;14.45;7.57;;;4.00;99.90;;;;;;4978291;28;20109;-68
2023/12/07 00:57:50;;;;;;;16.30;8.25;;;4.00;99.90;;;;;;4994041;28;20042;-69
2023/12/07 01:00:16;;;;;;;13.23;7.55;;;4.10;99.90;;;;;;4996291;28;20038;-69
2023/12/07 01:02:42;;;;;;;12.10;7.57;;;4.10;99.90;;;;;;4994640;28;20116;-68
2023/12/07 01:05:08;;;;;;;15.52;7.80;;;4.00;99.90;;;;;;4995479;28;20113;-69
2023/12/07 01:07:34;;;;;;;16.88;8.88;;;4.00;99.90;;;;;;4995829;28;20777;-69
2023/12/07 01:10:00;;;;;;;24.17;10.90;;;4.00;99.90;;;;;;4993914;28;20034;-69
2023/12/07 01:12:26;;;;;;;18.58;9.35;;;4.10;99.90;;;;;;4992436;28;20058;-69
2023/12/07 01:14:51;;;;;;;17.15;9.05;;;4.00;99.90;;;;;;4993150;28;20042;-69
2023/12/07 01:17:17;;;;;;;17.77;9.00;;;4.00;99.90;;;;;;4995767;28;20125;-69
2023/12/07 01:19:43;;;;;;;14.73;8.38;;;4.00;99.90;;;;;;4994782;28;20739;-68
2023/12/07 01:22:09;;;;;;;16.38;8.13;;;4.00;99.90;;;;;;4997856;28;20026;-69
2023/12/07 01:24:35;;;;;;;15.02;8.05;;;4.00;99.90;;;;;;4998195;28;20034;-69
2023/12/07 01:27:01;;;;;;;14.93;8.38;;;4.00;99.90;;;;;;4996833;28;20041;-69
2023/12/07 01:29:26;;;;;;;16.60;8.60;;;4.00;99.90;;;;;;4991409;28;20100;-69
2023/12/07 01:31:52;;;;;;;13.57;8.02;;;4.00;99.90;;;;;;4992230;28;20034;-68
2023/12/07 01:34:18;;;;;;;16.55;9.10;;;4.00;99.90;;;;;;4998698;28;20029;-69
2023/12/07 01:36:44;;;;;;;12.98;7.90;;;4.00;99.90;;;;;;4996205;28;20036;-69
2023/12/07 01:39:12;;;;;;;15.55;8.52;;;4.00;99.90;;;;;;4996548;28;20026;-69
2023/12/07 01:41:39;;;;;;;17.65;8.85;;;4.10;99.90;;;;;;4996691;28;20038;-69
2023/12/07 01:44:05;;;;;;;14.48;8.20;;;4.00;99.90;;;;;;4996216;28;20038;-69
2023/12/07 01:46:33;;;;;;;15.00;8.30;;;4.00;99.90;;;;;;4996962;28;20068;-68
2023/12/07 01:48:59;;;;;;;15.52;9.27;;;4.00;99.90;;;;;;4995175;28;20625;-69
2023/12/07 01:51:26;;;;;;;16.10;8.65;;;4.10;99.90;;;;;;4997452;28;20026;-68
2023/12/07 01:53:52;;;;;;;14.00;8.23;;;4.00;99.90;;;;;;4994684;28;20398;-69
2023/12/07 01:56:18;;;;;;;17.05;8.93;;;4.00;99.90;;;;;;4998908;28;20394;-69
2023/12/07 01:58:44;;;;;;;12.00;7.15;;;4.10;99.90;;;;;;4994535;28;20100;-69
2023/12/07 02:01:12;;;;;;;16.42;8.80;;;4.00;99.90;;;;;;4995162;28;20488;-69
2023/12/07 02:03:41;;;;;;;14.68;8.43;;;4.10;99.90;;;;;;4995122;28;20069;-69
2023/12/07 02:06:08;;;;;;;15.18;8.18;;;4.00;99.90;;;;;;4993351;28;20041;-69
2023/12/07 02:08:35;;;;;;;16.38;8.73;;;4.00;99.90;;;;;;4990229;28;20038;-69
2023/12/07 02:11:01;;;;;;;13.95;8.15;;;4.00;99.90;;;;;;4989813;28;20117;-69
2023/12/07 02:13:27;;;;;;;15.27;8.68;;;4.10;99.90;;;;;;4993775;28;20482;-69
2023/12/07 02:15:57;;;;;;;14.65;8.38;;;4.00;99.90;;;;;;4992243;28;20121;-69
2023/12/07 02:18:40;;;;;;;16.77;8.98;;;4.00;99.90;;;;;;4993472;28;20437;-69
2023/12/07 02:21:17;;;;;;;15.95;8.18;;;4.00;99.90;;;;;;5008206;28;20034;-69
2023/12/07 02:23:46;;;;;;;15.38;8.77;;;4.00;99.90;;;;;;4989667;28;20042;-68
2023/12/07 02:26:52;;;;;;;16.40;8.63;;;4.00;99.90;;;;;;4993604;28;20027;-68
2023/12/07 02:29:18;;;;;;;13.13;7.85;;;4.00;99.90;;;;;;4995093;28;20752;-69
2023/12/07 02:31:44;;;;;;;15.18;8.60;;;4.10;99.90;;;;;;4995697;28;20042;-69
2023/12/07 02:34:10;;;;;;;12.73;7.78;;;4.10;99.90;;;;;;4991652;28;20074;-69
2023/12/07 02:36:38;;;;;;;14.65;8.00;;;4.10;99.90;;;;;;4992590;28;20112;-69
2023/12/07 02:39:06;;;;;;;14.52;7.68;;;4.10;99.90;;;;;;4991903;28;20064;-69
2023/12/07 02:41:33;;;;;;;14.25;8.38;;;4.10;99.90;;;;;;4992532;28;20037;-69
2023/12/07 02:43:59;;;;;;;16.63;8.13;;;4.10;99.90;;;;;;4990722;28;20410;-69
2023/12/07 02:46:26;;;;;;;14.80;8.10;;;4.10;99.90;;;;;;4992998;28;20048;-69
2023/12/07 02:48:52;;;;;;;15.43;8.50;;;4.10;99.90;;;;;;4990060;28;20703;-69
2023/12/07 02:51:18;;;;;;;15.45;8.00;;;4.10;99.90;;;;;;4993017;28;20052;-69
2023/12/07 02:53:44;;;;;;;14.23;8.32;;;4.10;99.90;;;;;;4990806;28;20093;-69
2023/12/07 02:56:10;;;;;;;15.38;8.18;;;4.10;99.90;;;;;;4992539;28;20092;-69
2023/12/07 02:58:36;;;;;;;17.67;8.52;;;4.10;99.90;;;;;;4990722;28;20129;-69
2023/12/07 03:01:02;;;;;;;17.17;7.88;;;4.10;99.90;;;;;;4989397;28;20065;-69
2023/12/07 03:03:28;;;;;;;12.95;8.15;;;4.10;99.90;;;;;;4991935;28;20104;-69
2023/12/07 03:05:54;;;;;;;15.75;8.25;;;4.10;99.90;;;;;;4988469;28;20058;-69
2023/12/07 03:08:19;;;;;;;17.17;8.57;;;4.10;99.90;;;;;;4992279;28;20034;-68
2023/12/07 03:10:45;;;;;;;16.27;8.60;;;4.10;99.90;;;;;;4989069;28;20084;-69
2023/12/07 03:13:11;;;;;;;20.45;10.15;;;4.10;99.90;;;;;;4989229;28;20046;-69
2023/12/07 03:15:37;;;;;;;19.17;10.07;;;4.10;99.90;;;;;;4989415;28;20514;-69
2023/12/07 03:18:03;;;;;;;19.08;9.73;;;4.10;99.90;;;;;;4988571;28;20057;-69
2023/12/07 03:20:28;;;;;;;19.45;10.52;;;4.10;99.90;;;;;;4989948;28;20048;-69
2023/12/07 03:22:54;;;;;;;19.52;10.93;;;4.10;99.90;;;;;;4987097;28;20034;-69
2023/12/07 03:25:20;;;;;;;15.93;8.40;;;4.10;99.90;;;;;;4990562;28;20088;-68
2023/12/07 03:27:46;;;;;;;13.80;8.68;;;4.10;99.90;;;;;;4987823;28;20041;-69
2023/12/07 03:30:12;;;;;;;17.10;9.00;;;4.10;99.90;;;;;;4982450;28;20031;-69
2023/12/07 03:32:38;;;;;;;15.60;8.55;;;4.10;99.90;;;;;;4987982;28;20062;-69
2023/12/07 03:35:05;;;;;;;17.10;9.20;;;4.10;99.90;;;;;;4987204;28;20073;-69
2023/12/07 03:37:31;;;;;;;16.38;8.85;;;4.10;99.90;;;;;;4988451;28;20026;-69
2023/12/07 03:39:56;;;;;;;16.20;8.18;;;4.10;99.90;;;;;;4986021;28;20026;-69
2023/12/07 03:42:22;;;;;;;17.65;8.65;;;4.10;99.90;;;;;;4988345;28;20600;-69
2023/12/07 03:44:48;;;;;;;17.58;8.73;;;4.10;99.90;;;;;;4986371;28;20181;-69
2023/12/07 03:47:14;;;;;;;16.92;7.28;;;4.10;99.90;;;;;;4988387;28;20030;-69
2023/12/07 03:49:41;;;;;;;19.45;8.55;;;4.10;99.90;;;;;;4987095;28;20486;-69
2023/12/07 03:52:07;;;;;;;18.30;9.68;;;4.10;99.90;;;;;;4988526;28;20046;-69
2023/12/07 03:54:32;;;;;;;15.95;8.07;;;4.10;99.90;;;;;;4986945;28;20491;-69
2023/12/07 03:56:58;;;;;;;19.17;8.60;;;4.10;99.90;;;;;;4985009;28;20574;-69
2023/12/07 03:59:24;;;;;;;17.38;9.60;;;4.10;99.90;;;;;;4988193;28;20065;-69
2023/12/07 04:01:50;;;;;;;15.23;8.60;;;4.10;99.90;;;;;;4984454;28;20767;-69
2023/12/07 04:04:16;;;;;;;16.77;9.30;;;4.10;99.90;;;;;;4986838;28;20091;-69
2023/12/07 04:06:42;;;;;;;19.52;9.10;;;4.10;99.90;;;;;;4986134;28;20121;-69
2023/12/07 04:09:07;;;;;;;18.90;9.55;;;4.10;99.90;;;;;;4985864;28;20035;-69
2023/12/07 04:11:33;;;;;;;18.90;9.20;;;4.10;99.90;;;;;;4987450;28;20069;-68
2023/12/07 04:13:59;;;;;;;19.45;8.85;;;4.10;99.90;;;;;;4983500;28;20030;-69
2023/12/07 04:16:25;;;;;;;19.42;9.35;;;4.10;99.90;;;;;;4985982;28;20040;-69
2023/12/07 04:18:51;;;;;;;17.60;9.25;;;4.10;99.90;;;;;;4983282;28;20054;-69
2023/12/07 04:21:17;;;;;;;20.00;9.13;;;4.10;99.90;;;;;;4985684;28;20514;-69
2023/12/07 04:23:43;;;;;;;16.77;9.23;;;4.10;99.90;;;;;;4983998;28;20027;-68
2023/12/07 04:26:09;;;;;;;13.80;8.00;;;4.10;99.90;;;;;;4984882;28;20050;-69
2023/12/07 04:28:35;;;;;;;20.90;9.88;;;4.10;99.90;;;;;;4986939;28;20601;-69
2023/12/07 04:31:00;;;;;;;19.48;9.55;;;4.10;99.90;;;;;;4982776;28;20122;-69
2023/12/07 04:33:26;;;;;;;19.60;9.63;;;4.10;99.90;;;;;;4985046;28;20092;-69
2023/12/07 04:35:52;;;;;;;19.58;9.90;;;4.10;99.90;;;;;;4985608;28;20041;-69
2023/12/07 04:38:18;;;;;;;22.38;10.00;;;4.10;99.90;;;;;;4984120;28;20150;-69
2023/12/07 04:40:44;;;;;;;16.60;8.95;;;4.20;99.90;;;;;;4982650;28;20038;-69
2023/12/07 04:43:10;;;;;;;15.05;8.43;;;4.10;99.90;;;;;;4983698;28;20041;-69
2023/12/07 04:45:36;;;;;;;19.77;9.27;;;4.10;99.90;;;;;;4998412;28;20030;-68
2023/12/07 04:48:03;;;;;;;17.38;9.52;;;4.10;99.90;;;;;;4981711;28;20030;-69
2023/12/07 04:50:29;;;;;;;17.92;9.10;;;4.10;99.90;;;;;;4983431;28;20034;-69
2023/12/07 04:52:55;;;;;;;21.02;11.23;;;4.10;99.90;;;;;;4980295;28;20027;-69
2023/12/07 04:55:20;;;;;;;15.02;8.70;;;4.10;99.90;;;;;;4984428;28;20033;-69
2023/12/07 04:57:46;;;;;;;15.18;8.65;;;4.10;99.90;;;;;;4980789;28;20101;-69
2023/12/07 05:00:13;;;;;;;17.05;9.40;;;4.10;99.90;;;;;;4982699;28;20061;-69
2023/12/07 05:02:39;;;;;;;16.98;9.65;;;4.20;99.90;;;;;;4981581;28;20042;-69
2023/12/07 05:05:05;;;;;;;18.65;9.05;;;4.10;99.90;;;;;;4981516;28;20061;-69
2023/12/07 05:07:31;;;;;;;19.02;9.73;;;4.10;99.90;;;;;;4982358;28;20045;-69
2023/12/07 05:09:57;;;;;;;16.98;9.45;;;4.20;99.90;;;;;;4979284;28;20030;-68
2023/12/07 05:12:23;;;;;;;17.25;9.35;;;4.20;99.90;;;;;;4982358;28;20042;-69
2023/12/07 05:14:50;;;;;;;19.30;9.32;;;4.20;99.90;;;;;;4984250;28;20042;-69
2023/12/07 05:17:16;;;;;;;20.33;10.00;;;4.20;99.90;;;;;;4982206;28;20050;-69
2023/12/07 05:19:44;;;;;;;18.52;9.52;;;4.20;99.90;;;;;;4980324;28;20069;-69
2023/12/07 05:22:09;;;;;;;16.58;8.18;;;4.20;99.90;;;;;;4980699;28;20121;-69
2023/12/07 05:24:35;;;;;;;17.40;9.05;;;4.10;99.90;;;;;;4980914;28;20117;-68
2023/12/07 05:27:01;;;;;;;21.98;10.88;;;4.10;99.90;;;;;;4979585;28;20034;-69
2023/12/07 05:29:28;;;;;;;15.98;8.68;;;4.10;99.90;;;;;;4975272;28;20035;-69
2023/12/07 05:31:53;;;;;;;18.15;9.32;;;4.10;99.90;;;;;;4977243;28;20030;-69
2023/12/07 05:34:19;;;;;;;19.92;9.35;;;4.10;99.90;;;;;;4981438;28;20549;-68
2023/12/07 05:36:46;;;;;;;16.17;9.10;;;4.10;99.90;;;;;;4978526;28;20193;-68
2023/12/07 05:39:12;;;;;;;22.45;10.50;;;4.00;99.90;;;;;;4979906;28;20043;-68
2023/12/07 05:41:38;;;;;;;20.27;10.40;;;4.00;99.90;;;;;;4978902;28;20041;-69
2023/12/07 05:44:04;;;;;;;20.05;9.73;;;4.00;99.90;;;;;;4976143;28;20026;-68
2023/12/07 05:46:31;;;;;;;16.98;9.05;;;4.00;99.90;;;;;;4966435;28;20034;-68
2023/12/07 05:48:57;;;;;;;22.00;11.18;;;4.00;99.90;;;;;;4974799;28;20045;-69
2023/12/07 05:51:24;;;;;;;19.42;9.90;;;3.90;99.90;;;;;;4982816;28;20038;-68
2023/12/07 05:53:50;;;;;;;18.85;9.65;;;3.90;99.90;;;;;;4976067;28;20042;-69
2023/12/07 05:56:22;;;;;;;18.83;10.18;;;3.90;99.90;;;;;;4979230;28;20050;-69
2023/12/07 05:58:48;;;;;;;17.85;9.27;;;3.90;99.90;;;;;;4976802;28;20034;-69
2023/12/07 06:01:17;;;;;;;16.90;9.27;;;3.90;99.90;;;;;;4982122;28;20813;-69
2023/12/07 06:03:44;;;;;;;16.48;8.57;;;3.90;99.90;;;;;;4984956;28;20116;-69
2023/12/07 06:06:12;;;;;;;16.65;9.10;;;3.90;99.90;;;;;;4980925;28;20150;-69
2023/12/07 06:08:38;;;;;;;17.95;9.85;;;3.90;99.90;;;;;;4980445;28;20564;-69
2023/12/07 06:11:05;;;;;;;19.92;10.52;;;4.00;99.90;;;;;;4980154;28;20046;-69
2023/12/07 06:13:31;;;;;;;19.15;10.25;;;3.90;99.90;;;;;;4985114;28;20042;-68
2023/12/07 06:15:57;;;;;;;21.85;10.18;;;4.00;99.90;;;;;;4978704;28;20041;-68
2023/12/07 06:18:23;;;;;;;20.52;10.70;;;4.00;99.90;;;;;;4981278;28;20029;-69
2023/12/07 06:20:49;;;;;;;18.90;10.20;;;4.00;99.90;;;;;;4978090;28;20030;-69
2023/12/07 06:23:14;;;;;;;20.98;9.93;;;4.00;99.90;;;;;;4979807;28;20039;-69
2023/12/07 06:25:40;;;;;;;20.67;10.65;;;4.00;99.90;;;;;;4979069;28;20060;-68
2023/12/07 06:28:06;;;;;;;20.20;9.65;;;4.00;99.90;;;;;;4990584;28;20065;-69
2023/12/07 06:30:32;;;;;;;18.33;9.77;;;4.00;99.90;;;;;;4979153;28;20030;-69
2023/12/07 06:32:58;;;;;;;18.48;9.48;;;4.10;99.90;;;;;;4977983;28;20046;-69
2023/12/07 06:35:24;;;;;;;25.73;12.23;;;4.00;99.90;;;;;;4980292;28;20057;-69
2023/12/07 06:37:50;;;;;;;21.05;9.65;;;4.10;99.90;;;;;;4976638;28;20066;-68
2023/12/07 06:40:16;;;;;;;20.48;10.65;;;4.10;99.90;;;;;;4983291;28;20034;-69
2023/12/07 06:42:41;;;;;;;21.30;10.70;;;4.10;99.90;;;;;;4977713;28;20026;-69
2023/12/07 06:45:13;;;;;;;21.98;10.38;;;4.10;99.90;;;;;;4980155;28;20482;-69
2023/12/07 06:47:39;;;;;;;22.52;10.43;;;4.10;99.90;;;;;;4997253;28;20493;-69
2023/12/07 06:50:08;;;;;;;17.27;9.23;;;4.10;99.90;;;;;;4996867;28;20049;-69
2023/12/07 06:52:39;;;;;;;18.90;9.45;;;4.10;99.90;;;;;;4996800;28;20501;-69
2023/12/07 06:55:05;;;;;;;18.25;9.13;;;4.10;99.90;;;;;;4996874;28;20155;-69
2023/12/07 06:57:32;;;;;;;22.05;10.93;;;4.10;99.90;;;;;;4997444;28;20030;-69
2023/12/07 06:59:57;;;;;;;19.17;9.98;;;4.10;99.90;;;;;;4992826;28;20049;-69
2023/12/07 07:02:24;;;;;;;19.05;9.43;;;4.10;99.90;;;;;;4997797;28;20682;-69
2023/12/07 07:04:50;;;;;;;19.92;9.90;;;4.10;99.90;;;;;;4994653;28;20030;-69
2023/12/07 07:07:16;;;;;;;21.05;10.23;;;4.10;99.90;;;;;;4996531;28;20034;-69
2023/12/07 07:09:42;;;;;;;20.38;10.07;;;4.20;99.90;;;;;;4995278;28;20033;-69
2023/12/07 07:12:08;;;;;;;20.65;9.95;;;4.20;99.90;;;;;;4995012;28;20041;-68
2023/12/07 07:14:34;;;;;;;21.65;10.57;;;4.20;99.90;;;;;;4993427;28;20057;-69
2023/12/07 07:17:00;;;;;;;19.67;9.98;;;4.20;99.90;;;;;;4993083;28;20477;-68
2023/12/07 07:19:26;;;;;;;21.52;10.60;;;4.20;99.90;;;;;;4996008;28;20030;-69
2023/12/07 07:21:51;;;;;;;23.25;11.25;;;4.10;99.90;;;;;;4992948;28;20038;-69
2023/12/07 07:24:17;;;;;;;18.67;10.35;;;4.20;99.90;;;;;;4995841;28;20041;-69
2023/12/07 07:26:43;;;;;;;26.40;12.00;;;4.20;99.90;;;;;;4993876;28;20117;-69
2023/12/07 07:29:09;;;;;;;19.20;9.85;;;4.20;99.90;;;;;;4988776;28;20038;-69
2023/12/07 07:31:36;;;;;;;23.88;10.30;;;4.20;99.90;;;;;;4989418;28;20052;-69
2023/12/07 07:34:02;;;;;;;21.48;10.57;;;4.20;99.90;;;;;;4993063;28;20458;-69
2023/12/07 07:36:28;;;;;;;30.38;13.50;;;4.20;99.90;;;;;;4994971;28;20474;-69
2023/12/07 07:38:55;;;;;;;27.42;12.57;;;4.30;99.90;;;;;;4992566;28;20077;-69
2023/12/07 07:41:21;;;;;;;23.77;10.00;;;4.30;99.90;;;;;;4992074;28;20045;-69
2023/12/07 07:43:46;;;;;;;20.35;10.73;;;4.30;99.90;;;;;;4991704;28;20546;-69
2023/12/07 07:46:12;;;;;;;22.85;11.77;;;4.30;99.90;;;;;;4993994;28;20031;-69
2023/12/07 07:48:39;;;;;;;21.75;10.57;;;4.30;99.90;;;;;;4992808;28;20665;-69
2023/12/07 07:51:05;;;;;;;24.25;10.27;;;4.30;99.90;;;;;;4991520;28;20046;-69
2023/12/07 07:53:31;;;;;;;19.60;9.50;;;4.30;99.90;;;;;;4993076;28;20032;-69
2023/12/07 07:55:56;;;;;;;21.05;10.55;;;4.30;99.90;;;;;;4988870;28;20030;-69
2023/12/07 07:58:22;;;;;;;27.05;12.85;;;4.30;99.90;;;;;;4993862;28;20044;-69
2023/12/07 08:00:49;;;;;;;27.42;12.63;;;4.40;99.90;;;;;;4990817;28;20030;-69
2023/12/07 08:03:15;;;;;;;25.17;11.02;;;4.40;99.90;;;;;;4993450;28;20030;-69
2023/12/07 08:05:41;;;;;;;27.88;13.02;;;4.40;99.90;;;;;;4984867;28;20116;-69
2023/12/07 08:08:07;;;;;;;27.60;12.00;;;4.40;99.90;;;;;;4990546;28;20506;-69
2023/12/07 08:10:33;;;;;;;25.52;11.93;;;4.40;99.90;;;;;;4986235;28;20027;-69
2023/12/07 08:12:59;;;;;;;32.75;13.77;;;4.40;99.90;;;;;;4987772;28;20380;-69
2023/12/07 08:15:25;;;;;;;28.63;12.82;;;4.40;99.90;;;;;;4987035;28;20030;-69
2023/12/07 08:17:50;;;;;;;28.23;14.00;;;4.40;99.90;;;;;;4989275;28;20596;-69
2023/12/07 08:20:16;;;;;;;29.08;13.52;;;4.40;99.90;;;;;;4990580;28;20045;-69
2023/12/07 08:22:43;;;;;;;34.83;16.25;;;4.40;99.90;;;;;;4988611;28;20042;-69
2023/12/07 08:25:11;;;;;;;35.92;17.63;;;4.40;99.90;;;;;;4990667;28;20030;-69
2023/12/07 08:27:37;;;;;;;34.15;15.90;;;4.40;99.90;;;;;;4990168;28;20125;-69
2023/12/07 08:30:04;;;;;;;35.65;17.60;;;4.40;99.90;;;;;;4990711;28;20161;-69
2023/12/07 08:32:29;;;;;;;37.78;17.90;;;4.40;99.90;;;;;;4990225;28;20044;-68
2023/12/07 08:34:55;;;;;;;36.88;17.90;;;4.40;99.90;;;;;;4987788;28;20494;-69
2023/12/07 08:37:21;;;;;;;30.77;15.77;;;4.50;99.90;;;;;;4991360;28;20040;-69
2023/12/07 08:39:47;;;;;;;29.48;14.40;;;4.50;99.90;;;;;;4987279;28;20038;-69
2023/12/07 08:42:13;;;;;;;29.75;13.10;;;4.50;99.90;;;;;;4989384;28;20035;-69
2023/12/07 08:44:39;;;;;;;26.13;12.77;;;4.50;99.90;;;;;;4988462;28;20034;-69
2023/12/07 08:47:05;;;;;;;29.95;13.93;;;4.50;99.90;;;;;;4988280;28;20093;-68
2023/12/07 08:49:31;;;;;;;29.83;14.27;;;4.60;99.90;;;;;;4988921;28;20022;-69
2023/12/07 08:51:57;;;;;;;30.92;14.57;;;4.50;99.90;;;;;;4986695;28;20088;-69
2023/12/07 08:54:23;;;;;;;33.92;14.80;;;4.60;99.90;;;;;;4989834;28;20061;-69
2023/12/07 08:56:49;;;;;;;36.70;16.20;;;4.60;99.90;;;;;;4992379;28;20105;-68
2023/12/07 08:59:15;;;;;;;31.77;15.70;;;4.60;99.90;;;;;;4989428;28;20469;-69
2023/12/07 09:01:40;;;;;;;31.10;16.73;;;4.60;99.90;;;;;;4987319;28;20717;-69
2023/12/07 09:04:06;;;;;;;32.75;16.52;;;4.60;99.90;;;;;;4986890;28;20027;-69
2023/12/07 09:06:32;;;;;;;39.47;19.63;;;4.70;99.90;;;;;;4987492;28;20406;-68
2023/12/07 09:08:58;;;;;;;42.22;20.30;;;4.70;99.90;;;;;;4986029;28;20058;-69
2023/12/07 09:11:24;;;;;;;51.55;21.63;;;4.70;99.90;;;;;;4988472;28;20156;-69
2023/12/07 09:13:50;;;;;;;42.72;19.23;;;4.70;99.90;;;;;;4984126;28;20038;-69
2023/12/07 09:16:16;;;;;;;40.30;17.27;;;4.70;99.90;;;;;;4988305;28;20042;-69
2023/12/07 09:18:45;;;;;;;48.08;21.13;;;4.70;99.90;;;;;;4986314;28;20136;-69
2023/12/07 09:21:10;;;;;;;41.00;19.42;;;4.70;99.90;;;;;;4987098;28;20085;-68
2023/12/07 09:23:37;;;;;;;36.80;17.42;;;4.70;99.90;;;;;;4981088;28;20510;-69
2023/12/07 09:26:03;;;;;;;35.58;17.92;;;4.70;99.90;;;;;;4980684;28;20038;-69
2023/12/07 09:28:29;;;;;;;43.28;20.75;;;4.70;99.90;;;;;;4988369;28;20030;-69
2023/12/07 09:30:55;;;;;;;36.28;17.77;;;4.70;99.90;;;;;;4983767;28;20121;-69
2023/12/07 09:33:21;;;;;;;37.20;17.63;;;4.70;99.90;;;;;;4987297;28;20066;-69
2023/12/07 09:35:47;;;;;;;47.38;22.80;;;4.70;99.90;;;;;;4984401;28;20069;-69
2023/12/07 09:38:13;;;;;;;50.42;26.40;;;4.80;99.90;;;;;;4986599;28;20046;-68
2023/12/07 09:40:39;;;;;;;43.30;22.92;;;4.80;99.90;;;;;;4985752;28;20392;-69
2023/12/07 09:43:05;;;;;;;39.75;19.60;;;4.70;99.90;;;;;;4987414;28;20046;-69
2023/12/07 09:45:31;;;;;;;37.65;18.00;;;4.80;99.90;;;;;;4989448;28;20117;-68
2023/12/07 09:47:58;;;;;;;33.42;16.00;;;4.80;99.90;;;;;;4986725;28;20041;-69
2023/12/07 09:50:25;;;;;;;36.40;17.27;;;4.80;99.90;;;;;;4982285;28;20391;-69
2023/12/07 09:52:53;;;;;;;42.33;18.00;;;4.80;99.90;;;;;;4988586;28;20025;-69
2023/12/07 09:55:19;;;;;;;49.63;21.50;;;4.80;99.90;;;;;;4990177;28;20026;-69
2023/12/07 09:57:49;;;;;;;50.17;21.70;;;4.80;99.90;;;;;;4992465;28;20034;-69
2023/12/07 10:00:15;;;;;;;47.55;18.23;;;4.90;99.90;;;;;;4988687;28;20062;-68
2023/12/07 10:02:42;;;;;;;48.95;20.50;;;4.90;99.90;;;;;;4988515;28;20402;-69
2023/12/07 10:05:13;;;;;;;42.47;19.13;;;4.90;99.90;;;;;;4985318;28;20027;-68
2023/12/07 10:07:50;;;;;;;63.35;25.50;;;4.90;99.90;;;;;;4987255;28;20053;-68
2023/12/07 10:10:17;;;;;;;39.88;18.15;;;4.80;99.90;;;;;;4988431;28;20430;-68
2023/12/07 10:13:01;;;;;;;37.63;16.17;;;4.90;99.90;;;;;;4968716;28;20027;-70
2023/12/07 10:15:28;;;;;;;53.40;20.50;;;4.80;99.90;;;;;;4978525;28;20638;-69
2023/12/07 10:17:59;;;;;;;40.80;17.08;;;4.80;99.90;;;;;;4981142;28;20066;-69
2023/12/07 10:20:27;;;;;;;46.58;18.02;;;4.90;99.90;;;;;;4989658;28;20644;-69
2023/12/07 10:23:09;;;;;;;53.47;20.35;;;4.90;99.90;;;;;;4983532;28;20030;-69
2023/12/07 10:25:40;;;;;;;67.80;25.67;;;4.90;99.90;;;;;;4985550;28;20042;-70
2023/12/07 10:28:08;;;;;;;72.57;25.73;;;5.00;99.90;;;;;;4985920;28;20038;-69
2023/12/07 10:30:34;;;;;;;53.53;21.42;;;4.90;99.90;;;;;;4985280;28;20043;-69
2023/12/07 10:33:02;;;;;;;86.95;23.08;;;4.90;99.90;;;;;;4986090;28;20813;-69
2023/12/07 10:35:29;;;;;;;51.35;21.55;;;5.00;99.90;;;;;;4985722;28;20040;-68
2023/12/07 10:37:55;;;;;;;52.20;19.58;;;4.90;99.90;;;;;;4982121;28;20047;-68
2023/12/07 10:40:21;;;;;;;53.35;19.77;;;5.00;99.90;;;;;;4987792;28;20052;-69
2023/12/07 10:42:55;;;;;;;52.92;19.23;;;5.00;99.90;;;;;;4986145;28;20058;-69
2023/12/07 10:45:24;;;;;;;48.55;19.83;;;5.00;99.90;;;;;;4983073;28;20527;-69
2023/12/07 10:47:53;;;;;;;54.67;22.63;;;5.00;99.90;;;;;;4982721;28;20581;-69
2023/12/07 10:50:23;;;;;;;49.90;19.05;;;5.00;99.90;;;;;;4989050;28;20030;-69
2023/12/07 10:52:54;;;;;;;45.60;19.08;;;5.00;99.90;;;;;;4985833;28;20035;-69
2023/12/07 10:55:23;;;;;;;46.75;17.55;;;4.90;99.90;;;;;;4982623;28;20510;-69
2023/12/07 10:57:52;;;;;;;51.30;18.90;;;4.90;99.90;;;;;;4981876;28;20034;-69
2023/12/07 11:00:19;;;;;;;37.90;16.55;;;4.90;99.90;;;;;;4984158;28;20030;-69
2023/12/07 11:02:45;;;;;;;52.42;21.13;;;5.00;99.90;;;;;;4981749;28;20030;-69
2023/12/07 11:05:12;;;;;;;44.70;19.00;;;5.00;99.90;;;;;;4983287;28;20595;-69
2023/12/07 11:08:03;;;;;;;47.90;19.13;;;5.00;99.90;;;;;;4983622;28;20117;-68
2023/12/07 11:11:10;;;;;;;57.58;21.48;;;5.00;99.90;;;;;;4982243;28;20034;-68
2023/12/07 11:13:37;;;;;;;44.13;17.27;;;5.10;99.90;;;;;;4984349;28;20097;-69
2023/12/07 11:16:04;;;;;;;39.20;16.35;;;5.10;99.90;;;;;;4981318;28;20030;-65
2023/12/07 11:18:30;;;;;;;34.03;16.20;;;5.10;99.90;;;;;;4982399;28;20105;-67
2023/12/07 11:20:57;;;;;;;39.78;16.98;;;5.10;99.90;;;;;;4984754;28;20133;-69
2023/12/07 11:23:23;;;;;;;35.63;15.15;;;5.10;99.90;;;;;;4982690;28;20093;-69
2023/12/07 11:25:51;;;;;;;40.35;16.67;;;5.10;99.90;;;;;;4979966;28;20104;-70
2023/12/07 11:28:17;;;;;;;46.33;17.67;;;5.10;99.90;;;;;;4982307;28;20045;-69
2023/12/07 11:30:45;;;;;;;42.95;17.20;;;5.10;99.90;;;;;;4980176;28;20075;-69
2023/12/07 11:33:14;;;;;;;36.50;15.25;;;5.10;99.90;;;;;;4981328;28;20051;-69
2023/12/07 11:36:02;;;;;;;68.43;22.08;;;5.20;99.90;;;;;;4979660;28;20058;-69
2023/12/07 11:38:28;;;;;;;63.00;20.90;;;5.20;99.90;;;;;;4981410;28;20113;-69
2023/12/07 11:40:55;;;;;;;50.40;18.08;;;5.20;99.90;;;;;;4978667;28;20030;-69
2023/12/07 11:43:35;;;;;;;51.08;19.65;;;5.10;99.90;;;;;;4980239;28;20038;-69
2023/12/07 11:46:01;;;;;;;50.78;19.33;;;5.10;99.90;;;;;;4978465;28;20039;-69
2023/12/07 11:48:27;;;;;;;59.17;20.13;;;5.20;99.90;;;;;;4980702;28;20048;-69
2023/12/07 11:50:56;;;;;;;58.65;20.20;;;5.20;99.90;;;;;;4977708;28;20035;-69
2023/12/07 11:53:30;;;;;;;56.10;18.70;;;5.10;99.90;;;;;;4985055;28;20045;-69
2023/12/07 11:56:07;;;;;;;47.92;17.65;;;5.10;99.90;;;;;;4976434;28;20045;-70
2023/12/07 11:58:35;;;;;;;51.78;18.20;;;5.10;99.90;;;;;;4978197;28;20033;-67
2023/12/07 12:01:01;;;;;;;65.57;21.70;;;5.10;99.90;;;;;;4982357;28;20503;-69
2023/12/07 12:03:28;;;;;;;75.28;20.80;;;5.10;99.90;;;;;;4979178;28;20045;-70
2023/12/07 12:05:55;;;;;;;74.40;21.52;;;5.10;99.90;;;;;;4981526;28;20465;-69
2023/12/07 12:08:21;;;;;;;77.03;22.02;;;5.10;99.90;;;;;;4979415;28;20116;-69
2023/12/07 12:10:50;;;;;;;72.85;21.80;;;5.10;99.90;;;;;;4976534;28;20039;-69
2023/12/07 12:13:16;;;;;;;61.55;20.42;;;5.10;99.90;;;;;;4981802;28;20058;-69
2023/12/07 12:15:42;;;;;;;75.93;20.80;;;5.10;99.90;;;;;;4976340;28;20030;-69
2023/12/07 12:18:09;;;;;;;76.38;22.13;;;5.00;99.90;;;;;;4977070;28;20467;-69
2023/12/07 12:20:35;;;;;;;58.38;19.65;;;5.00;99.90;;;;;;4975736;28;20042;-69
2023/12/07 12:23:01;;;;;;;65.43;20.90;;;5.00;99.90;;;;;;4975646;28;20034;-69
2023/12/07 12:25:30;;;;;;;58.88;19.40;;;5.00;99.90;;;;;;4977243;28;20030;-69
2023/12/07 12:28:07;;;;;;;85.88;25.90;;;5.00;99.90;;;;;;4974048;28;20042;-69
2023/12/07 12:30:33;;;;;;;59.60;19.95;;;5.00;99.90;;;;;;4974888;28;20034;-69
2023/12/07 12:33:00;;;;;;;80.18;20.30;;;5.10;99.90;;;;;;4974410;28;20506;-69
2023/12/07 12:35:26;;;;;;;88.47;24.85;;;5.10;99.90;;;;;;4986890;28;20095;-69
2023/12/07 12:37:52;;;;;;;77.82;20.08;;;5.10;99.90;;;;;;4993142;28;20499;-69
2023/12/07 12:40:19;;;;;;;60.83;18.48;;;5.10;99.90;;;;;;4996047;28;20026;-68